createdAt,value
2023-04-15T00:00:59.821Z,100.00
2023-04-15T00:03:27.267Z,100.00
2023-04-15T00:05:54.372Z,100.00
2023-04-15T00:08:21.105Z,100.00
2023-04-15T00:10:47.948Z,100.00
2023-04-15T00:13:15.530Z,100.00
2023-04-15T00:15:43.310Z,100.00
2023-04-15T00:18:10.409Z,100.00
2023-04-15T00:20:37.726Z,100.00
2023-04-15T00:23:05.607Z,100.00
2023-04-15T00:25:32.477Z,100.00
2023-04-15T00:27:59.433Z,100.00
2023-04-15T00:30:26.628Z,100.00
2023-04-15T00:32:53.643Z,100.00
2023-04-15T00:35:22.210Z,100.00
2023-04-15T00:37:51.404Z,100.00
2023-04-15T00:40:19.771Z,100.00
2023-04-15T00:42:47.274Z,100.00
2023-04-15T00:45:14.198Z,100.00
2023-04-15T00:47:44.611Z,100.00
2023-04-15T00:50:12.781Z,100.00
2023-04-15T00:52:40.763Z,100.00
2023-04-15T00:55:08.963Z,100.00
2023-04-15T00:57:36.698Z,100.00
2023-04-15T01:00:08.861Z,100.00
2023-04-15T01:02:36.895Z,100.00
2023-04-15T01:05:04.947Z,100.00
2023-04-15T01:07:32.370Z,100.00
2023-04-15T01:09:59.500Z,100.00
2023-04-15T01:12:26.923Z,100.00
2023-04-15T01:14:54.404Z,100.00
2023-04-15T01:17:21.558Z,100.00
2023-04-15T01:19:48.780Z,100.00
2023-04-15T01:22:16.089Z,100.00
2023-04-15T01:24:51.043Z,100.00
2023-04-15T01:27:19.314Z,100.00
2023-04-15T01:29:45.930Z,100.00
2023-04-15T01:32:12.948Z,100.00
2023-04-15T01:34:39.643Z,100.00
2023-04-15T01:37:06.659Z,100.00
2023-04-15T01:39:33.685Z,100.00
2023-04-15T01:42:00.452Z,100.00
2023-04-15T01:44:27.702Z,100.00
2023-04-15T01:46:54.574Z,100.00
2023-04-15T01:49:21.312Z,100.00
2023-04-15T01:51:48.111Z,100.00
2023-04-15T01:54:14.799Z,100.00
2023-04-15T01:56:41.619Z,100.00
2023-04-15T01:59:09.875Z,100.00
2023-04-15T02:01:38.255Z,100.00
2023-04-15T02:04:05.102Z,100.00
2023-04-15T02:06:31.986Z,100.00
2023-04-15T02:08:59.310Z,100.00
2023-04-15T02:11:26.236Z,100.00
2023-04-15T02:13:53.111Z,100.00
2023-04-15T02:16:20.562Z,100.00
2023-04-15T02:18:47.466Z,100.00
2023-04-15T02:21:14.874Z,100.00
2023-04-15T02:23:41.659Z,100.00
2023-04-15T02:26:08.419Z,100.00
2023-04-15T02:28:35.859Z,100.00
2023-04-15T02:31:06.584Z,100.00
2023-04-15T02:33:33.607Z,100.00
2023-04-15T02:36:01.099Z,100.00
2023-04-15T02:38:28.598Z,100.00
2023-04-15T02:40:55.647Z,100.00
2023-04-15T02:43:22.446Z,100.00
2023-04-15T02:45:51.393Z,100.00
2023-04-15T02:48:19.824Z,100.00
2023-04-15T02:50:47.978Z,100.00
2023-04-15T02:53:16.177Z,100.00
2023-04-15T02:55:43.084Z,100.00
2023-04-15T02:58:10.016Z,100.00
2023-04-15T03:00:37.109Z,100.00
2023-04-15T03:03:06.176Z,100.00
2023-04-15T03:05:33.257Z,100.00
2023-04-15T03:08:03.129Z,100.00
2023-04-15T03:10:29.961Z,100.00
2023-04-15T03:12:56.991Z,100.00
2023-04-15T03:15:24.244Z,100.00
2023-04-15T03:17:53.252Z,100.00
2023-04-15T03:20:20.391Z,100.00
2023-04-15T03:22:48.432Z,100.00
2023-04-15T03:25:15.757Z,100.00
2023-04-15T03:27:43.231Z,100.00
2023-04-15T03:30:11.641Z,100.00
2023-04-15T03:32:40.146Z,100.00
2023-04-15T03:35:08.242Z,100.00
2023-04-15T03:37:35.029Z,100.00
2023-04-15T03:40:02.123Z,100.00
2023-04-15T03:42:28.709Z,100.00
2023-04-15T03:44:55.417Z,100.00
2023-04-15T03:47:22.191Z,100.00
2023-04-15T03:49:48.906Z,100.00
2023-04-15T03:52:15.698Z,100.00
2023-04-15T03:54:42.374Z,100.00
2023-04-15T03:57:09.129Z,100.00
2023-04-15T03:59:36.085Z,100.00
2023-04-15T04:02:03.059Z,100.00
2023-04-15T04:04:29.804Z,100.00
2023-04-15T04:06:56.578Z,100.00
2023-04-15T04:09:23.246Z,100.00
2023-04-15T04:11:50.020Z,100.00
2023-04-15T04:14:17.045Z,100.00
2023-04-15T04:16:44.833Z,100.00
2023-04-15T04:19:11.548Z,100.00
2023-04-15T04:21:39.666Z,100.00
2023-04-15T04:24:06.436Z,100.00
2023-04-15T04:26:33.279Z,100.00
2023-04-15T04:29:00.220Z,100.00
2023-04-15T04:31:28.455Z,100.00
2023-04-15T04:33:55.552Z,100.00
2023-04-15T04:36:22.287Z,100.00
2023-04-15T04:38:49.002Z,100.00
2023-04-15T04:41:16.062Z,100.00
2023-04-15T04:43:42.737Z,100.00
2023-04-15T04:46:10.403Z,100.00
2023-04-15T04:48:37.160Z,100.00
2023-04-15T04:51:04.170Z,100.00
2023-04-15T04:53:31.103Z,100.00
2023-04-15T04:55:58.340Z,100.00
2023-04-15T04:58:24.875Z,100.00
2023-04-15T05:00:52.032Z,100.00
2023-04-15T05:03:19.075Z,100.00
2023-04-15T05:05:46.490Z,100.00
2023-04-15T05:08:13.150Z,100.00
2023-04-15T05:10:39.941Z,100.00
2023-04-15T05:13:06.859Z,100.00
2023-04-15T05:15:35.025Z,100.00
2023-04-15T05:18:01.861Z,100.00
2023-04-15T05:20:29.287Z,100.00
2023-04-15T05:22:56.009Z,100.00
2023-04-15T05:25:23.097Z,100.00
2023-04-15T05:27:49.797Z,100.00
2023-04-15T05:30:16.859Z,100.00
2023-04-15T05:32:43.666Z,100.00
2023-04-15T05:35:10.734Z,100.00
2023-04-15T05:37:37.428Z,100.00
2023-04-15T05:40:04.588Z,100.00
2023-04-15T05:42:31.481Z,100.00
2023-04-15T05:44:58.372Z,100.00
2023-04-15T05:47:25.179Z,100.00
2023-04-15T05:49:52.024Z,100.00
2023-04-15T05:52:18.715Z,100.00
2023-04-15T05:54:45.730Z,100.00
2023-04-15T05:57:12.512Z,100.00
2023-04-15T05:59:39.228Z,100.00
2023-04-15T06:02:06.345Z,100.00
2023-04-15T06:04:33.074Z,100.00
2023-04-15T06:06:59.891Z,100.00
2023-04-15T06:09:26.691Z,100.00
2023-04-15T06:11:53.483Z,100.00
2023-04-15T06:14:20.331Z,100.00
2023-04-15T06:16:47.063Z,100.00
2023-04-15T06:19:14.330Z,100.00
2023-04-15T06:21:41.113Z,100.00
2023-04-15T06:24:08.006Z,100.00
2023-04-15T06:26:34.770Z,100.00
2023-04-15T06:29:01.817Z,100.00
2023-04-15T06:31:28.907Z,100.00
2023-04-15T06:33:55.820Z,100.00
2023-04-15T06:36:22.568Z,100.00
2023-04-15T06:38:49.308Z,100.00
2023-04-15T06:41:16.547Z,100.00
2023-04-15T06:43:43.482Z,100.00
2023-04-15T06:46:10.509Z,100.00
2023-04-15T06:48:37.323Z,100.00
2023-04-15T06:51:04.237Z,100.00
2023-04-15T06:53:31.077Z,100.00
2023-04-15T06:55:57.809Z,100.00
2023-04-15T06:58:24.642Z,100.00
2023-04-15T07:00:52.110Z,100.00
2023-04-15T07:03:19.016Z,100.00
2023-04-15T07:05:45.823Z,100.00
2023-04-15T07:08:12.536Z,100.00
2023-04-15T07:10:39.221Z,100.00
2023-04-15T07:13:07.581Z,100.00
2023-04-15T07:15:34.644Z,100.00
2023-04-15T07:18:01.786Z,100.00
2023-04-15T07:20:28.498Z,100.00
2023-04-15T07:22:55.246Z,100.00
2023-04-15T07:25:22.319Z,100.00
2023-04-15T07:27:49.083Z,100.00
2023-04-15T07:30:17.189Z,100.00
2023-04-15T07:32:44.480Z,100.00
2023-04-15T07:35:11.958Z,100.00
2023-04-15T07:37:39.202Z,100.00
2023-04-15T07:40:07.374Z,100.00
2023-04-15T07:42:35.137Z,100.00
2023-04-15T07:45:02.549Z,100.00
2023-04-15T07:47:35.672Z,100.00
2023-04-15T07:50:05.791Z,100.00
2023-04-15T07:52:39.465Z,100.00
2023-04-15T07:55:09.143Z,100.00
2023-04-15T07:57:37.113Z,100.00
2023-04-15T08:00:06.018Z,100.00
2023-04-15T08:02:40.664Z,100.00
2023-04-15T08:05:08.039Z,100.00
2023-04-15T08:07:35.317Z,100.00
2023-04-15T08:10:01.946Z,100.00
2023-04-15T08:12:29.216Z,100.00
2023-04-15T08:14:58.222Z,100.00
2023-04-15T08:17:27.011Z,100.00
2023-04-15T08:19:54.362Z,100.00
2023-04-15T08:22:22.363Z,100.00
2023-04-15T08:24:49.496Z,100.00
2023-04-15T08:27:16.562Z,100.00
2023-04-15T08:29:43.558Z,100.00
2023-04-15T08:32:12.268Z,100.00
2023-04-15T08:34:39.178Z,100.00
2023-04-15T08:37:07.147Z,100.00
2023-04-15T08:39:34.095Z,100.00
2023-04-15T08:42:02.790Z,100.00
2023-04-15T08:44:33.402Z,100.00
2023-04-15T08:47:04.361Z,100.00
2023-04-15T08:49:32.999Z,100.00
2023-04-15T08:52:00.525Z,100.00
2023-04-15T08:54:28.549Z,100.00
2023-04-15T08:56:55.406Z,100.00
2023-04-15T08:59:22.272Z,100.00
2023-04-15T09:01:51.247Z,100.00
2023-04-15T09:04:18.476Z,100.00
2023-04-15T09:06:45.168Z,100.00
2023-04-15T09:09:14.356Z,100.00
2023-04-15T09:11:42.173Z,100.00
2023-04-15T09:14:08.960Z,100.00
2023-04-15T09:16:58.882Z,100.00
2023-04-15T09:19:26.432Z,100.00
2023-04-15T09:21:59.073Z,100.00
2023-04-15T09:24:37.511Z,100.00
2023-04-15T09:27:04.704Z,100.00
2023-04-15T09:29:31.679Z,100.00
2023-04-15T09:32:12.096Z,100.00
2023-04-15T09:34:39.275Z,100.00
2023-04-15T09:37:07.583Z,100.00
2023-04-15T09:39:52.070Z,100.00
2023-04-15T09:42:27.092Z,100.00
2023-04-15T09:44:54.231Z,100.00
2023-04-15T09:47:31.597Z,100.00
2023-04-15T09:49:59.906Z,100.00
2023-04-15T09:52:27.312Z,100.00
2023-04-15T09:54:58.163Z,100.00
2023-04-15T09:57:25.268Z,100.00
2023-04-15T09:59:52.260Z,100.00
2023-04-15T10:02:23.446Z,100.00
2023-04-15T10:04:52.075Z,100.00
2023-04-15T10:07:20.901Z,100.00
2023-04-15T10:09:49.182Z,100.00
2023-04-15T10:12:19.813Z,100.00
2023-04-15T10:14:56.797Z,100.00
2023-04-15T10:17:26.397Z,100.00
2023-04-15T10:19:54.913Z,100.00
2023-04-15T10:22:24.690Z,100.00
2023-04-15T10:24:52.390Z,100.00
2023-04-15T10:27:19.968Z,100.00
2023-04-15T10:29:47.913Z,100.00
2023-04-15T10:32:16.110Z,100.00
2023-04-15T10:34:43.259Z,100.00
2023-04-15T10:37:11.491Z,100.00
2023-04-15T10:39:40.615Z,100.00
2023-04-15T10:42:07.517Z,100.00
2023-04-15T10:44:36.576Z,100.00
2023-04-15T10:47:10.659Z,100.00
2023-04-15T10:49:45.324Z,100.00
2023-04-15T10:52:12.730Z,100.00
2023-04-15T10:54:39.699Z,100.00
2023-04-15T10:57:06.614Z,100.00
2023-04-15T10:59:39.515Z,100.00
2023-04-15T11:02:08.201Z,100.00
2023-04-15T11:04:57.956Z,100.00
2023-04-15T11:07:41.096Z,100.00
2023-04-15T11:10:13.508Z,100.00
2023-04-15T11:12:41.302Z,100.00
2023-04-15T11:15:43.168Z,100.00
2023-04-15T11:18:13.991Z,100.00
2023-04-15T11:20:45.487Z,100.00
2023-04-15T11:23:15.218Z,100.00
2023-04-15T11:25:43.905Z,100.00
2023-04-15T11:28:12.495Z,100.00
2023-04-15T11:30:40.343Z,100.00
2023-04-15T11:33:09.666Z,100.00
2023-04-15T11:35:36.527Z,96.21
2023-04-15T11:38:05.342Z,92.49
2023-04-15T11:40:35.521Z,95.49
2023-04-15T11:43:15.996Z,93.32
2023-04-15T11:45:56.461Z,100.00
2023-04-15T11:48:26.044Z,100.00
2023-04-15T11:50:59.858Z,96.80
2023-04-15T11:53:38.894Z,95.82
2023-04-15T11:56:11.983Z,91.08
2023-04-15T11:58:39.460Z,97.33
2023-04-15T12:01:07.537Z,100.00
2023-04-15T12:03:43.679Z,97.90
2023-04-15T12:06:18.494Z,86.29
2023-04-15T12:09:10.152Z,96.98
2023-04-15T12:11:48.324Z,92.60
2023-04-15T12:14:30.320Z,90.67
2023-04-15T12:17:02.829Z,92.27
2023-04-15T12:19:37.529Z,92.08
2023-04-15T12:22:15.754Z,86.32
2023-04-15T12:24:49.791Z,81.45
2023-04-15T12:27:17.431Z,95.24
2023-04-15T12:29:44.240Z,79.80
2023-04-15T12:32:20.916Z,83.96
2023-04-15T12:34:52.678Z,77.93
2023-04-15T12:37:19.635Z,82.68
2023-04-15T12:39:51.548Z,87.64
2023-04-15T12:42:18.993Z,84.96
2023-04-15T12:44:47.220Z,82.78
2023-04-15T12:47:14.116Z,72.78
2023-04-15T12:49:41.264Z,74.21
2023-04-15T12:52:08.259Z,79.26
2023-04-15T12:54:36.065Z,76.07
2023-04-15T12:57:05.528Z,79.77
2023-04-15T12:59:33.418Z,74.26
2023-04-15T13:02:01.220Z,86.46
2023-04-15T13:04:30.749Z,79.46
2023-04-15T13:06:57.867Z,80.06
2023-04-15T13:09:24.663Z,80.58
2023-04-15T13:11:51.436Z,79.99
2023-04-15T13:14:21.608Z,83.71
2023-04-15T13:16:48.400Z,84.88
2023-04-15T13:19:15.267Z,88.44
2023-04-15T13:21:41.991Z,83.92
2023-04-15T13:24:09.813Z,79.49
2023-04-15T13:26:36.716Z,83.29
2023-04-15T13:29:04.857Z,83.78
2023-04-15T13:31:31.530Z,87.74
2023-04-15T13:33:58.284Z,87.10
2023-04-15T13:36:24.994Z,82.71
2023-04-15T13:38:52.014Z,80.98
2023-04-15T13:41:18.650Z,87.55
2023-04-15T13:43:45.675Z,86.17
2023-04-15T13:46:12.318Z,88.14
2023-04-15T13:48:39.074Z,86.58
2023-04-15T13:51:06.226Z,78.70
2023-04-15T13:53:38.010Z,81.95
2023-04-15T13:56:07.741Z,82.36
2023-04-15T13:58:34.736Z,78.38
2023-04-15T14:01:03.941Z,77.38
2023-04-15T14:03:32.826Z,82.79
2023-04-15T14:05:59.661Z,84.87
2023-04-15T14:08:26.382Z,84.71
2023-04-15T14:10:53.277Z,82.15
2023-04-15T14:13:20.028Z,91.46
2023-04-15T14:15:47.373Z,97.34
2023-04-15T14:18:14.365Z,100.00
2023-04-15T14:20:44.195Z,94.34
2023-04-15T14:23:11.559Z,88.17
2023-04-15T14:25:42.094Z,85.70
2023-04-15T14:28:10.995Z,97.90
2023-04-15T14:30:38.607Z,97.01
2023-04-15T14:33:06.279Z,88.28
2023-04-15T14:35:34.098Z,86.66
2023-04-15T14:38:01.280Z,85.14
2023-04-15T14:40:28.126Z,85.10
2023-04-15T14:42:54.919Z,83.21
2023-04-15T14:45:21.632Z,84.93
2023-04-15T14:47:48.708Z,82.99
2023-04-15T14:50:15.498Z,86.32
2023-04-15T14:52:42.239Z,100.00
2023-04-15T14:55:12.785Z,85.30
2023-04-15T14:57:41.691Z,80.21
2023-04-15T15:00:10.489Z,82.96
2023-04-15T15:02:40.248Z,82.43
2023-04-15T15:05:08.024Z,100.00
2023-04-15T15:07:37.198Z,92.28
2023-04-15T15:10:04.510Z,91.82
2023-04-15T15:12:31.068Z,96.59
2023-04-15T15:14:57.746Z,94.37
2023-04-15T15:17:24.517Z,100.00
2023-04-15T15:19:51.552Z,100.00
2023-04-15T15:22:20.821Z,100.00
2023-04-15T15:24:48.198Z,100.00
2023-04-15T15:27:15.014Z,100.00
2023-04-15T15:29:41.772Z,100.00
2023-04-15T15:32:08.512Z,100.00
2023-04-15T15:34:35.182Z,100.00
2023-04-15T15:37:02.114Z,100.00
2023-04-15T15:39:28.802Z,100.00
2023-04-15T15:41:55.566Z,100.00
2023-04-15T15:44:22.270Z,100.00
2023-04-15T15:46:50.445Z,100.00
2023-04-15T15:49:17.242Z,100.00
2023-04-15T15:51:44.048Z,100.00
2023-04-15T15:54:10.748Z,100.00
2023-04-15T15:56:39.498Z,100.00
2023-04-15T15:59:06.473Z,100.00
2023-04-15T16:01:34.587Z,100.00
2023-04-15T16:04:01.480Z,100.00
2023-04-15T16:06:28.751Z,100.00
2023-04-15T16:08:55.317Z,100.00
2023-04-15T16:11:22.060Z,100.00
2023-04-15T16:13:48.762Z,100.00
2023-04-15T16:16:15.575Z,100.00
2023-04-15T16:18:42.605Z,100.00
2023-04-15T16:21:09.507Z,100.00
2023-04-15T16:23:37.050Z,100.00
2023-04-15T16:26:03.819Z,100.00
2023-04-15T16:28:30.581Z,100.00
2023-04-15T16:30:57.442Z,100.00
2023-04-15T16:33:24.241Z,100.00
2023-04-15T16:35:51.461Z,100.00
2023-04-15T16:38:18.169Z,100.00
2023-04-15T16:40:46.254Z,100.00
2023-04-15T16:43:12.945Z,100.00
2023-04-15T16:45:39.758Z,100.00
2023-04-15T16:48:06.744Z,100.00
2023-04-15T16:50:33.464Z,100.00
2023-04-15T16:53:00.824Z,100.00
2023-04-15T16:55:28.536Z,100.00
2023-04-15T16:58:01.693Z,100.00
2023-04-15T17:00:35.823Z,100.00
2023-04-15T17:03:03.191Z,100.00
2023-04-15T17:05:32.949Z,100.00
2023-04-15T17:07:59.756Z,100.00
2023-04-15T17:10:26.800Z,100.00
2023-04-15T17:12:53.567Z,100.00
2023-04-15T17:15:20.320Z,100.00
2023-04-15T17:17:47.133Z,100.00
2023-04-15T17:20:14.116Z,100.00
2023-04-15T17:22:40.993Z,100.00
2023-04-15T17:25:08.152Z,100.00
2023-04-15T17:27:34.836Z,100.00
2023-04-15T17:30:02.334Z,100.00
2023-04-15T17:32:31.975Z,100.00
2023-04-15T17:34:58.809Z,100.00
2023-04-15T17:37:25.703Z,100.00
2023-04-15T17:39:52.624Z,100.00
2023-04-15T17:42:19.475Z,100.00
2023-04-15T17:44:46.594Z,100.00
2023-04-15T17:47:13.940Z,100.00
2023-04-15T17:49:41.201Z,100.00
2023-04-15T17:52:08.104Z,100.00
2023-04-15T17:54:34.797Z,100.00
2023-04-15T17:57:03.252Z,100.00
2023-04-15T17:59:30.038Z,100.00
2023-04-15T18:01:58.655Z,100.00
2023-04-15T18:04:26.922Z,100.00
2023-04-15T18:06:54.052Z,100.00
2023-04-15T18:09:20.983Z,100.00
2023-04-15T18:11:48.871Z,100.00
2023-04-15T18:14:26.963Z,100.00
2023-04-15T18:16:57.800Z,100.00
2023-04-15T18:19:25.788Z,100.00
2023-04-15T18:21:52.725Z,100.00
2023-04-15T18:24:19.558Z,100.00
2023-04-15T18:26:49.669Z,100.00
2023-04-15T18:29:16.638Z,100.00
2023-04-15T18:31:43.492Z,100.00
2023-04-15T18:34:10.438Z,100.00
2023-04-15T18:36:37.178Z,100.00
2023-04-15T18:39:04.449Z,100.00
2023-04-15T18:41:31.382Z,100.00
2023-04-15T18:43:58.207Z,100.00
2023-04-15T18:46:25.024Z,100.00
2023-04-15T18:48:51.758Z,100.00
2023-04-15T18:51:18.465Z,100.00
2023-04-15T18:53:45.612Z,100.00
2023-04-15T18:56:12.328Z,100.00
2023-04-15T18:59:25.701Z,100.00
2023-04-15T19:01:26.434Z,100.00
2023-04-15T19:03:53.285Z,100.00
2023-04-15T19:06:20.154Z,100.00
2023-04-15T19:08:46.848Z,100.00
2023-04-15T19:11:13.591Z,100.00
2023-04-15T19:13:40.804Z,100.00
2023-04-15T19:16:07.606Z,100.00
2023-04-15T19:18:34.404Z,100.00
2023-04-15T19:21:01.236Z,100.00
2023-04-15T19:23:27.972Z,100.00
2023-04-15T19:25:54.755Z,100.00
2023-04-15T19:28:21.451Z,100.00
2023-04-15T19:30:48.259Z,100.00
2023-04-15T19:33:14.965Z,100.00
2023-04-15T19:35:41.824Z,100.00
2023-04-15T19:38:08.561Z,100.00
2023-04-15T19:40:35.305Z,100.00
2023-04-15T19:43:02.049Z,100.00
2023-04-15T19:45:28.781Z,100.00
2023-04-15T19:47:55.499Z,100.00
2023-04-15T19:50:26.011Z,100.00
2023-04-15T19:52:53.547Z,100.00
2023-04-15T19:55:20.450Z,100.00
2023-04-15T19:57:47.186Z,100.00
2023-04-15T20:00:13.969Z,100.00
2023-04-15T20:02:40.961Z,100.00
2023-04-15T20:05:09.968Z,100.00
2023-04-15T20:07:37.106Z,100.00
2023-04-15T20:10:04.605Z,100.00
2023-04-15T20:12:51.114Z,100.00
2023-04-15T20:15:20.119Z,100.00
2023-04-15T20:17:46.792Z,100.00
2023-04-15T20:20:13.609Z,100.00
2023-04-15T20:22:41.127Z,100.00
2023-04-15T20:25:08.926Z,100.00
2023-04-15T20:27:35.781Z,100.00
2023-04-15T20:30:04.732Z,100.00
2023-04-15T20:32:35.418Z,100.00
2023-04-15T20:35:04.291Z,100.00
2023-04-15T20:37:33.520Z,100.00
2023-04-15T20:40:01.644Z,100.00
2023-04-15T20:42:32.725Z,100.00
2023-04-15T20:44:59.591Z,100.00
2023-04-15T20:47:26.442Z,100.00
2023-04-15T20:49:53.217Z,100.00
2023-04-15T20:52:19.910Z,100.00
2023-04-15T20:54:47.101Z,100.00
2023-04-15T20:57:13.751Z,100.00
2023-04-15T20:59:40.471Z,100.00
2023-04-15T21:02:07.282Z,100.00
2023-04-15T21:04:34.077Z,100.00
2023-04-15T21:07:00.987Z,100.00
2023-04-15T21:09:27.761Z,100.00
2023-04-15T21:12:01.136Z,100.00
2023-04-15T21:14:29.239Z,100.00
2023-04-15T21:16:57.214Z,100.00
2023-04-15T21:19:23.969Z,100.00
2023-04-15T21:21:50.963Z,100.00
2023-04-15T21:24:17.694Z,100.00
2023-04-15T21:26:44.377Z,100.00
2023-04-15T21:29:11.936Z,100.00
2023-04-15T21:31:38.967Z,100.00
2023-04-15T21:34:05.854Z,100.00
2023-04-15T21:36:32.735Z,100.00
2023-04-15T21:39:00.286Z,100.00
2023-04-15T21:41:27.169Z,100.00
2023-04-15T21:43:54.003Z,100.00
2023-04-15T21:46:22.129Z,100.00
2023-04-15T21:48:50.796Z,100.00
2023-04-15T21:51:17.522Z,100.00
2023-04-15T21:53:44.259Z,100.00
2023-04-15T21:56:11.192Z,100.00
2023-04-15T21:58:37.971Z,100.00
2023-04-15T22:01:04.927Z,100.00
2023-04-15T22:03:34.074Z,100.00
2023-04-15T22:06:04.427Z,100.00
2023-04-15T22:08:41.725Z,100.00
2023-04-15T22:11:28.619Z,100.00
2023-04-15T22:13:56.966Z,100.00
2023-04-15T22:16:25.838Z,100.00
2023-04-15T22:18:52.688Z,100.00
2023-04-15T22:21:19.412Z,100.00
2023-04-15T22:23:47.547Z,100.00
2023-04-15T22:26:14.723Z,100.00
2023-04-15T22:28:42.722Z,100.00
2023-04-15T22:31:09.899Z,100.00
2023-04-15T22:33:36.583Z,100.00
2023-04-15T22:36:03.392Z,100.00
2023-04-15T22:38:30.479Z,100.00
2023-04-15T22:40:57.196Z,100.00
2023-04-15T22:43:24.025Z,100.00
2023-04-15T22:45:51.464Z,100.00
2023-04-15T22:48:18.974Z,100.00
2023-04-15T22:50:46.142Z,100.00
2023-04-15T22:53:12.890Z,100.00
2023-04-15T22:55:39.619Z,100.00
2023-04-15T22:58:06.388Z,100.00
2023-04-15T23:00:33.105Z,100.00
2023-04-15T23:03:00.205Z,100.00
2023-04-15T23:05:27.626Z,100.00
2023-04-15T23:07:54.539Z,100.00
2023-04-15T23:10:21.283Z,100.00
2023-04-15T23:12:48.124Z,100.00
2023-04-15T23:15:14.834Z,100.00
2023-04-15T23:17:42.790Z,100.00
2023-04-15T23:20:10.096Z,100.00
2023-04-15T23:22:37.757Z,100.00
2023-04-15T23:25:05.882Z,100.00
2023-04-15T23:27:32.680Z,100.00
2023-04-15T23:29:59.368Z,100.00
2023-04-15T23:32:27.381Z,100.00
2023-04-15T23:34:54.480Z,100.00
2023-04-15T23:37:21.400Z,100.00
2023-04-15T23:39:48.112Z,100.00
2023-04-15T23:42:14.828Z,100.00
2023-04-15T23:44:41.514Z,100.00
2023-04-15T23:47:08.302Z,100.00
2023-04-15T23:49:36.566Z,100.00
2023-04-15T23:52:03.639Z,100.00
2023-04-15T23:54:30.415Z,100.00
2023-04-15T23:56:57.238Z,100.00
2023-04-15T23:59:23.973Z,100.00
